Time;durP1;ratioP1;P1;durP2;ratioP2;P2;SDS_P1;SDS_P2;PMS_P1;PMS_P2;Temp;Humidity;BMP_temperature;BMP_pressure;BME280_temperature;BME280_humidity;BME280_pressure;Samples;Min_cycle;Max_cycle;Signal;HPM_P1;HPM_P2
2022/01/07 00:01:14;;;;;;;;;;;22.80;22.10;;;;;;5102270;28;20352;-46
2022/01/07 00:03:40;;;;;;;;;;;22.80;22.00;;;;;;5125713;28;19931;-48
2022/01/07 00:06:05;;;;;;;;;;;22.80;22.00;;;;;;5120457;28;19939;-46
2022/01/07 00:08:31;;;;;;;;;;;22.80;21.90;;;;;;5120423;28;20430;-46
2022/01/07 00:10:57;;;;;;;;;;;22.80;22.00;;;;;;5125938;28;20018;-46
2022/01/07 00:13:23;;;;;;;;;;;22.80;21.90;;;;;;5118369;28;19923;-46
2022/01/07 00:15:49;;;;;;;;;;;22.80;21.90;;;;;;5125283;28;19927;-52
2022/01/07 00:18:14;;;;;;;;;;;22.90;21.90;;;;;;5121130;28;19930;-47
2022/01/07 00:20:40;;;;;;;;;;;22.80;21.80;;;;;;5120020;28;20026;-46
2022/01/07 00:23:06;;;;;;;;;;;22.80;21.80;;;;;;5125485;28;20070;-46
2022/01/07 00:25:32;;;;;;;;;;;22.80;21.80;;;;;;5120277;28;19927;-48
2022/01/07 00:27:58;;;;;;;;;;;22.80;21.70;;;;;;5120240;28;20378;-46
2022/01/07 00:30:23;;;;;;;;;;;22.80;21.70;;;;;;5125840;28;19923;-47
2022/01/07 00:32:49;;;;;;;;;;;22.80;21.70;;;;;;5118249;28;20543;-48
2022/01/07 00:35:15;;;;;;;;;;;22.80;21.60;;;;;;5123080;28;20483;-53
2022/01/07 00:37:41;;;;;;;;;;;22.80;21.70;;;;;;5122937;28;19927;-47
2022/01/07 00:40:09;;;;;;;;;;;22.80;21.60;;;;;;5120181;28;19931;-47
2022/01/07 00:42:35;;;;;;;;;;;22.80;21.60;;;;;;5125538;27;20302;-47
2022/01/07 00:45:01;;;;;;;;;;;22.80;21.70;;;;;;5105356;28;19923;-48
2022/01/07 00:47:26;;;;;;;;;;;22.80;21.60;;;;;;5123748;28;19923;-48
2022/01/07 00:49:52;;;;;;;;;;;22.80;21.60;;;;;;5127225;28;20419;-53
2022/01/07 00:52:18;;;;;;;;;;;22.80;21.60;;;;;;5123158;28;19927;-45
2022/01/07 00:54:44;;;;;;;;;;;22.80;21.60;;;;;;5123430;28;19928;-49
2022/01/07 00:57:09;;;;;;;;;;;22.90;21.50;;;;;;5128609;28;20000;-47
2022/01/07 00:59:35;;;;;;;;;;;22.90;21.50;;;;;;5123273;28;19924;-46
2022/01/07 01:02:01;;;;;;;;;;;22.80;21.50;;;;;;5128949;28;19924;-46
2022/01/07 01:04:27;;;;;;;;;;;22.90;21.40;;;;;;5123190;28;20355;-45
2022/01/07 01:06:53;;;;;;;;;;;22.90;21.40;;;;;;5123295;28;19999;-47
2022/01/07 01:09:18;;;;;;;;;;;22.90;21.40;;;;;;5126350;28;19934;-46
2022/01/07 01:11:44;;;;;;;;;;;22.80;21.40;;;;;;5123194;28;19976;-46
2022/01/07 01:14:10;;;;;;;;;;;22.90;21.40;;;;;;5123187;28;20213;-46
2022/01/07 01:16:36;;;;;;;;;;;22.80;21.40;;;;;;5128446;28;19997;-48
2022/01/07 01:19:01;;;;;;;;;;;22.90;21.30;;;;;;5102509;28;19924;-46
2022/01/07 01:21:27;;;;;;;;;;;22.80;21.40;;;;;;5128796;28;20471;-47
2022/01/07 01:23:53;;;;;;;;;;;22.80;21.40;;;;;;5123213;28;19952;-46
2022/01/07 01:26:19;;;;;;;;;;;22.90;21.40;;;;;;5122611;28;20037;-48
2022/01/07 01:28:44;;;;;;;;;;;22.90;21.30;;;;;;5126902;28;19928;-47
2022/01/07 01:31:10;;;;;;;;;;;22.90;21.30;;;;;;5122952;28;19981;-47
2022/01/07 01:33:36;;;;;;;;;;;22.90;21.30;;;;;;5122894;28;19999;-46
2022/01/07 01:36:02;;;;;;;;;;;22.90;21.30;;;;;;5128323;28;20047;-45
2022/01/07 01:38:30;;;;;;;;;;;22.90;21.30;;;;;;5122719;28;19927;-47
2022/01/07 01:40:56;;;;;;;;;;;22.90;21.30;;;;;;5128340;28;19923;-45
2022/01/07 01:43:21;;;;;;;;;;;23.00;21.10;;;;;;5123149;28;19968;-45
2022/01/07 01:45:47;;;;;;;;;;;22.90;21.20;;;;;;5120715;28;19927;-47
2022/01/07 01:48:13;;;;;;;;;;;23.10;21.10;;;;;;5127968;28;20046;-50
2022/01/07 01:50:39;;;;;;;;;;;23.00;21.10;;;;;;5122442;28;19924;-45
2022/01/07 01:53:04;;;;;;;;;;;22.90;21.10;;;;;;5122459;28;20000;-46
2022/01/07 01:55:30;;;;;;;;;;;23.00;21.10;;;;;;5127158;27;20291;-44
2022/01/07 01:57:56;;;;;;;;;;;23.10;21.00;;;;;;5122608;28;19992;-42
2022/01/07 02:00:22;;;;;;;;;;;23.10;21.00;;;;;;5126985;28;19965;-54
2022/01/07 02:02:48;;;;;;;;;;;23.20;20.90;;;;;;5124008;28;19930;-43
2022/01/07 02:05:14;;;;;;;;;;;23.10;20.90;;;;;;5120510;28;20307;-46
2022/01/07 02:07:41;;;;;;;;;;;23.10;21.00;;;;;;5127713;28;19924;-48
2022/01/07 02:10:08;;;;;;;;;;;23.10;20.90;;;;;;5122151;28;19975;-48
2022/01/07 02:12:33;;;;;;;;;;;23.00;21.00;;;;;;5121949;28;19930;-45
2022/01/07 02:14:59;;;;;;;;;;;23.10;20.90;;;;;;5127714;28;19923;-45
2022/01/07 02:17:25;;;;;;;;;;;23.00;20.90;;;;;;5122396;28;19963;-47
2022/01/07 02:19:52;;;;;;;;;;;23.20;20.90;;;;;;5123556;28;19931;-52
2022/01/07 02:22:17;;;;;;;;;;;23.30;20.80;;;;;;5124896;28;19924;-44
2022/01/07 02:24:44;;;;;;;;;;;23.20;20.80;;;;;;5122155;28;20382;-46
2022/01/07 02:27:10;;;;;;;;;;;23.00;20.90;;;;;;5127504;28;19924;-50
2022/01/07 02:29:36;;;;;;;;;;;23.00;20.90;;;;;;5122022;28;19937;-49
2022/01/07 02:32:02;;;;;;;;;;;22.90;21.00;;;;;;5121851;28;19927;-47
2022/01/07 02:34:28;;;;;;;;;;;22.90;21.00;;;;;;5127620;28;19927;-48
2022/01/07 02:36:54;;;;;;;;;;;22.80;21.00;;;;;;5122160;28;20260;-50
2022/01/07 02:39:19;;;;;;;;;;;22.80;21.00;;;;;;5122035;28;19931;-47
2022/01/07 02:41:45;;;;;;;;;;;22.90;20.90;;;;;;5125445;28;19923;-47
2022/01/07 02:44:11;;;;;;;;;;;22.90;21.00;;;;;;5103540;28;19923;-46
2022/01/07 02:46:37;;;;;;;;;;;22.90;20.90;;;;;;5126844;28;19927;-46
2022/01/07 02:49:09;;;;;;;;;;;22.90;20.90;;;;;;5121528;28;19927;-44
2022/01/07 02:51:35;;;;;;;;;;;22.90;20.90;;;;;;5103120;28;20351;-46
2022/01/07 02:54:00;;;;;;;;;;;23.00;20.90;;;;;;5127222;28;19923;-46
2022/01/07 02:56:26;;;;;;;;;;;23.00;20.80;;;;;;5121733;28;19953;-47
2022/01/07 02:58:52;;;;;;;;;;;23.10;20.80;;;;;;5119819;28;19923;-51
2022/01/07 03:01:18;;;;;;;;;;;23.20;20.70;;;;;;5126987;28;19924;-48
2022/01/07 03:03:44;;;;;;;;;;;23.10;20.80;;;;;;5121334;28;20263;-48
2022/01/07 03:06:09;;;;;;;;;;;22.80;21.00;;;;;;5125260;27;19931;-53
2022/01/07 03:08:35;;;;;;;;;;;22.80;21.00;;;;;;5121891;28;19931;-51
2022/01/07 03:11:01;;;;;;;;;;;22.70;21.00;;;;;;5121401;28;19931;-48
2022/01/07 03:13:27;;;;;;;;;;;22.70;21.00;;;;;;5127084;28;19930;-47
2022/01/07 03:15:52;;;;;;;;;;;22.70;21.00;;;;;;5121374;28;19941;-49
2022/01/07 03:18:18;;;;;;;;;;;22.60;21.10;;;;;;5119236;28;19946;-49
2022/01/07 03:20:44;;;;;;;;;;;22.70;21.00;;;;;;5127036;28;20276;-49
2022/01/07 03:23:11;;;;;;;;;;;22.60;21.10;;;;;;5121245;28;19924;-50
2022/01/07 03:25:37;;;;;;;;;;;22.70;20.90;;;;;;5123029;28;20382;-51
2022/01/07 03:28:03;;;;;;;;;;;22.70;20.90;;;;;;5124474;28;19977;-49
2022/01/07 03:30:29;;;;;;;;;;;22.70;20.80;;;;;;5103013;28;19927;-49
2022/01/07 03:32:55;;;;;;;;;;;22.60;20.90;;;;;;5108094;28;19939;-47
2022/01/07 03:35:20;;;;;;;;;;;22.70;20.90;;;;;;5100537;28;19976;-48
2022/01/07 03:37:48;;;;;;;;;;;22.70;20.90;;;;;;5119973;28;19923;-47
2022/01/07 03:40:14;;;;;;;;;;;22.60;20.90;;;;;;5126390;28;19923;-48
2022/01/07 03:42:40;;;;;;;;;;;22.70;20.80;;;;;;5120648;28;19926;-46
2022/01/07 03:45:06;;;;;;;;;;;22.70;20.80;;;;;;5120480;28;19923;-49
2022/01/07 03:47:32;;;;;;;;;;;22.80;20.70;;;;;;5126039;28;19928;-47
2022/01/07 03:49:58;;;;;;;;;;;22.70;20.70;;;;;;5120625;28;20928;-45
2022/01/07 03:52:23;;;;;;;;;;;22.70;20.70;;;;;;5126249;28;19935;-47
2022/01/07 03:54:50;;;;;;;;;;;22.70;20.70;;;;;;5118695;28;19927;-48
2022/01/07 03:57:17;;;;;;;;;;;22.70;20.60;;;;;;5120615;28;19966;-49
2022/01/07 03:59:43;;;;;;;;;;;22.80;20.50;;;;;;5125731;28;19931;-47
2022/01/07 04:02:08;;;;;;;;;;;22.80;20.40;;;;;;5120462;28;19923;-47
2022/01/07 04:04:34;;;;;;;;;;;22.80;20.40;;;;;;5120003;28;20619;-48
2022/01/07 04:07:00;;;;;;;;;;;22.80;20.40;;;;;;5126090;28;19984;-48
2022/01/07 04:09:26;;;;;;;;;;;22.80;20.40;;;;;;5120393;28;20063;-45
2022/01/07 04:11:52;;;;;;;;;;;22.70;20.50;;;;;;5126087;28;19954;-47
2022/01/07 04:14:18;;;;;;;;;;;22.80;20.40;;;;;;5118428;28;19923;-48
2022/01/07 04:16:43;;;;;;;;;;;22.70;20.40;;;;;;5120101;27;20045;-45
2022/01/07 04:19:09;;;;;;;;;;;22.80;20.40;;;;;;5125696;28;19924;-46
2022/01/07 04:21:35;;;;;;;;;;;22.80;20.40;;;;;;5120241;28;19949;-46
2022/01/07 04:24:01;;;;;;;;;;;22.80;20.40;;;;;;5101785;28;20115;-46
2022/01/07 04:26:26;;;;;;;;;;;22.70;20.30;;;;;;5107725;28;20366;-47
2022/01/07 04:28:52;;;;;;;;;;;22.80;20.30;;;;;;5120498;28;20337;-48
2022/01/07 04:31:18;;;;;;;;;;;22.80;20.30;;;;;;5123743;28;20259;-46
2022/01/07 04:33:44;;;;;;;;;;;22.70;20.40;;;;;;5120553;28;19924;-47
2022/01/07 04:36:09;;;;;;;;;;;22.80;20.30;;;;;;5120265;28;19923;-46
2022/01/07 04:38:35;;;;;;;;;;;22.80;20.20;;;;;;5125411;28;19973;-49
2022/01/07 04:41:01;;;;;;;;;;;22.80;20.30;;;;;;5119974;28;20394;-47
2022/01/07 04:43:27;;;;;;;;;;;22.80;20.20;;;;;;5120252;28;19958;-46
2022/01/07 04:45:52;;;;;;;;;;;22.80;20.20;;;;;;5125508;28;20588;-46
2022/01/07 04:48:18;;;;;;;;;;;22.80;20.20;;;;;;5119875;28;19924;-48
2022/01/07 04:50:44;;;;;;;;;;;22.80;20.20;;;;;;5121675;28;19969;-52
2022/01/07 04:53:10;;;;;;;;;;;22.90;20.10;;;;;;5121934;28;19924;-45
2022/01/07 04:55:37;;;;;;;;;;;22.80;20.20;;;;;;5119772;28;20030;-46
2022/01/07 04:58:06;;;;;;;;;;;22.80;20.20;;;;;;5125216;28;19938;-49
2022/01/07 05:00:32;;;;;;;;;;;22.90;20.10;;;;;;5119798;28;19928;-48
2022/01/07 05:02:58;;;;;;;;;;;23.00;20.00;;;;;;5120052;28;19923;-49
2022/01/07 05:05:24;;;;;;;;;;;22.90;19.90;;;;;;5125353;28;19924;-48
2022/01/07 05:07:49;;;;;;;;;;;22.90;20.00;;;;;;5118885;28;19923;-48
2022/01/07 05:10:16;;;;;;;;;;;22.90;20.00;;;;;;5118745;28;19981;-52
2022/01/07 05:12:42;;;;;;;;;;;22.80;20.10;;;;;;5125095;28;19926;-46
2022/01/07 05:15:08;;;;;;;;;;;22.90;20.00;;;;;;5119682;28;20018;-45
2022/01/07 05:17:34;;;;;;;;;;;22.90;20.00;;;;;;5124853;28;20970;-46
2022/01/07 05:20:00;;;;;;;;;;;22.80;20.10;;;;;;5119561;28;19930;-49
2022/01/07 05:22:26;;;;;;;;;;;22.90;20.00;;;;;;5119704;28;20314;-45
2022/01/07 05:24:51;;;;;;;;;;;22.80;20.10;;;;;;5124784;28;19923;-46
2022/01/07 05:27:17;;;;;;;;;;;22.90;20.10;;;;;;5098801;28;19931;-44
2022/01/07 05:29:43;;;;;;;;;;;22.90;20.10;;;;;;5120695;27;19927;-45
2022/01/07 05:32:09;;;;;;;;;;;22.90;20.00;;;;;;5128196;28;19924;-45
2022/01/07 05:34:35;;;;;;;;;;;22.90;20.10;;;;;;5122827;28;19923;-44
2022/01/07 05:37:00;;;;;;;;;;;22.90;20.10;;;;;;5128170;28;19923;-44
2022/01/07 05:39:26;;;;;;;;;;;23.00;20.00;;;;;;5123083;28;19966;-45
2022/01/07 05:41:52;;;;;;;;;;;22.90;20.10;;;;;;5104420;28;19931;-46
2022/01/07 05:44:18;;;;;;;;;;;23.00;20.10;;;;;;5109713;28;20026;-44
2022/01/07 05:46:43;;;;;;;;;;;23.00;20.10;;;;;;5120862;28;19927;-45
2022/01/07 05:49:09;;;;;;;;;;;23.00;20.00;;;;;;5122459;28;19924;-46
2022/01/07 05:51:35;;;;;;;;;;;23.00;20.00;;;;;;5128006;28;20282;-45
2022/01/07 05:54:01;;;;;;;;;;;23.00;20.00;;;;;;5104176;28;19946;-44
2022/01/07 05:56:26;;;;;;;;;;;23.00;20.00;;;;;;5128162;28;19924;-45
2022/01/07 05:58:52;;;;;;;;;;;23.00;20.00;;;;;;5122676;28;19949;-44
2022/01/07 06:01:18;;;;;;;;;;;23.00;20.00;;;;;;5122755;28;19934;-43
2022/01/07 06:03:44;;;;;;;;;;;23.00;20.10;;;;;;5125953;28;19968;-45
2022/01/07 06:06:10;;;;;;;;;;;23.00;20.10;;;;;;5122362;28;19930;-46
2022/01/07 06:08:35;;;;;;;;;;;23.10;20.00;;;;;;5122348;28;19923;-45
2022/01/07 06:11:01;;;;;;;;;;;23.10;20.00;;;;;;5127961;28;19923;-45
2022/01/07 06:13:27;;;;;;;;;;;22.60;20.30;;;;;;5121919;28;19972;-44
2022/01/07 06:15:53;;;;;;;;;;;19.60;23.50;;;;;;5127072;28;19930;-54
2022/01/07 06:18:19;;;;;;;;;;;21.30;22.00;;;;;;5123402;28;19928;-45
2022/01/07 06:20:44;;;;;;;;;;;22.00;21.10;;;;;;5121986;28;20246;-46
2022/01/07 06:23:10;;;;;;;;;;;22.30;20.90;;;;;;5125524;28;20543;-46
2022/01/07 06:25:36;;;;;;;;;;;22.50;20.70;;;;;;5122073;28;19931;-45
2022/01/07 06:28:02;;;;;;;;;;;22.60;20.60;;;;;;5122050;28;19982;-47
2022/01/07 06:30:27;;;;;;;;;;;22.70;20.50;;;;;;5127093;28;19923;-46
2022/01/07 06:32:53;;;;;;;;;;;22.70;20.50;;;;;;5121417;28;19931;-47
2022/01/07 06:35:19;;;;;;;;;;;22.80;20.50;;;;;;5124798;28;19928;-55
2022/01/07 06:37:45;;;;;;;;;;;22.80;20.50;;;;;;5125213;28;19931;-46
2022/01/07 06:40:11;;;;;;;;;;;22.80;20.40;;;;;;5120916;27;19968;-52
2022/01/07 06:42:37;;;;;;;;;;;22.90;20.50;;;;;;5126086;28;19931;-46
2022/01/07 06:45:04;;;;;;;;;;;22.90;20.50;;;;;;5121538;28;19931;-47
2022/01/07 06:47:30;;;;;;;;;;;22.90;20.50;;;;;;5121609;28;20301;-46
2022/01/07 06:49:56;;;;;;;;;;;22.90;20.50;;;;;;5126735;28;19932;-46
2022/01/07 06:52:21;;;;;;;;;;;23.00;20.50;;;;;;5121635;28;20393;-45
2022/01/07 06:54:47;;;;;;;;;;;23.00;20.30;;;;;;5121703;28;20010;-53
2022/01/07 06:57:13;;;;;;;;;;;23.00;20.40;;;;;;5127147;28;19978;-45
2022/01/07 06:59:39;;;;;;;;;;;23.00;20.40;;;;;;5119451;28;20370;-47
2022/01/07 07:02:05;;;;;;;;;;;20.80;22.40;;;;;;5127121;28;20306;-46
2022/01/07 07:04:30;;;;;;;;;;;20.60;22.90;;;;;;5121403;28;20282;-45
2022/01/07 07:06:56;;;;;;;;;;;21.70;21.70;;;;;;5121325;28;19934;-45
2022/01/07 07:09:22;;;;;;;;;;;22.20;21.10;;;;;;5108182;28;19934;-44
2022/01/07 07:11:48;;;;;;;;;;;22.40;21.00;;;;;;5121632;28;19975;-44
2022/01/07 07:14:13;;;;;;;;;;;22.50;20.80;;;;;;5121464;28;19924;-45
2022/01/07 07:16:39;;;;;;;;;;;22.60;20.80;;;;;;5127021;28;20260;-45
2022/01/07 07:19:05;;;;;;;;;;;22.70;20.70;;;;;;5119253;28;20358;-47
2022/01/07 07:21:31;;;;;;;;;;;22.70;20.60;;;;;;5108158;28;19931;-48
2022/01/07 07:23:56;;;;;;;;;;;22.80;20.50;;;;;;5085909;28;20450;-49
2022/01/07 07:26:22;;;;;;;;;;;22.90;20.50;;;;;;5120927;28;19928;-48
2022/01/07 07:28:48;;;;;;;;;;;22.90;20.40;;;;;;5107973;28;19923;-52
2022/01/07 07:31:16;;;;;;;;;;;23.00;20.40;;;;;;5121681;28;19934;-47
2022/01/07 07:36:27;;;;;;;;;;;23.10;20.20;;;;;;5124455;28;19970;-50
2022/01/07 07:38:53;;;;;;;;;;;22.60;20.60;;;;;;5121380;28;20302;-50
2022/01/07 07:41:19;;;;;;;;;;;19.50;24.00;;;;;;5120930;28;19923;-46
2022/01/07 07:43:47;;;;;;;;;;;21.40;21.90;;;;;;5126329;28;19992;-47
2022/01/07 07:46:13;;;;;;;;;;;22.20;21.00;;;;;;5120640;28;19972;-47
2022/01/07 07:48:39;;;;;;;;;;;22.50;20.70;;;;;;5126478;28;19923;-47
2022/01/07 07:51:05;;;;;;;;;;;22.70;20.60;;;;;;5120830;28;19930;-46
2022/01/07 07:53:30;;;;;;;;;;;22.70;20.50;;;;;;5120239;27;19993;-47
2022/01/07 07:55:56;;;;;;;;;;;22.80;20.40;;;;;;5124076;28;19923;-47
2022/01/07 07:58:22;;;;;;;;;;;22.90;20.30;;;;;;5120713;28;19928;-46
2022/01/07 08:00:48;;;;;;;;;;;23.00;20.20;;;;;;5120761;28;20099;-50
2022/01/07 08:03:14;;;;;;;;;;;21.60;21.50;;;;;;5106030;28;20106;-46
2022/01/07 08:05:40;;;;;;;;;;;20.60;22.90;;;;;;5120409;28;19923;-46
2022/01/07 08:08:05;;;;;;;;;;;21.70;21.60;;;;;;5126185;28;19932;-51
2022/01/07 08:10:32;;;;;;;;;;;22.30;21.00;;;;;;5120689;28;19931;-49
2022/01/07 08:18:20;;;;;;;;;;;22.80;20.70;;;;;;5120487;28;20161;-48
2022/01/07 08:20:45;;;;;;;;;;;22.80;20.60;;;;;;5100516;28;20310;-50
2022/01/07 08:23:11;;;;;;;;;;;22.90;20.50;;;;;;5107158;28;19924;-45
2022/01/07 08:25:37;;;;;;;;;;;22.90;20.50;;;;;;5120579;28;20014;-48
2022/01/07 08:28:04;;;;;;;;;;;19.60;23.90;;;;;;5120413;28;20341;-46
2022/01/07 08:30:37;;;;;;;;;;;21.50;22.00;;;;;;5125864;28;19924;-49
2022/01/07 08:35:50;;;;;;;;;;;22.50;21.00;;;;;;5120242;28;20017;-52
2022/01/07 08:38:16;;;;;;;;;;;22.70;20.80;;;;;;5125461;28;19930;-47
2022/01/07 08:40:41;;;;;;;;;;;22.70;20.70;;;;;;5120046;28;19923;-49
2022/01/07 08:43:08;;;;;;;;;;;22.80;20.60;;;;;;5121930;28;19924;-57
2022/01/07 08:45:34;;;;;;;;;;;22.90;20.60;;;;;;5124691;28;19939;-46
2022/01/07 08:48:00;;;;;;;;;;;23.00;20.50;;;;;;5120339;28;19931;-45
2022/01/07 08:50:25;;;;;;;;;;;23.10;20.40;;;;;;5123375;28;19927;-51
2022/01/07 08:52:52;;;;;;;;;;;20.40;22.90;;;;;;5120032;28;19977;-50
2022/01/07 08:55:18;;;;;;;;;;;21.00;22.50;;;;;;5119892;28;20076;-53
2022/01/07 08:57:44;;;;;;;;;;;22.00;21.40;;;;;;5125150;28;20397;-46
2022/01/07 09:00:10;;;;;;;;;;;22.30;21.10;;;;;;5119638;28;19927;-49
2022/01/07 09:02:36;;;;;;;;;;;22.50;20.90;;;;;;5119882;28;20271;-50
2022/01/07 09:05:02;;;;;;;;;;;22.70;20.80;;;;;;5127172;27;19942;-49
2022/01/07 09:07:27;;;;;;;;;;;22.80;20.70;;;;;;5123341;28;20395;-49
2022/01/07 09:09:53;;;;;;;;;;;22.90;20.60;;;;;;5126539;28;19927;-50
2022/01/07 09:12:19;;;;;;;;;;;22.90;20.50;;;;;;5123436;28;19923;-52
2022/01/07 09:14:46;;;;;;;;;;;20.30;23.10;;;;;;5123211;28;19931;-46
2022/01/07 09:17:11;;;;;;;;;;;21.20;22.50;;;;;;5128555;28;19923;-54
2022/01/07 09:19:37;;;;;;;;;;;22.00;21.50;;;;;;5123055;28;19978;-51
2022/01/07 09:22:03;;;;;;;;;;;22.40;21.10;;;;;;5123222;28;19931;-51
2022/01/07 09:24:29;;;;;;;;;;;22.60;20.90;;;;;;5128364;28;19923;-51
2022/01/07 09:26:56;;;;;;;;;;;22.70;20.80;;;;;;5121388;28;20314;-52
2022/01/07 09:29:26;;;;;;;;;;;22.80;20.70;;;;;;5127853;28;20446;-47
2022/01/07 09:31:52;;;;;;;;;;;22.30;21.00;;;;;;5123607;28;19946;-50
2022/01/07 09:34:18;;;;;;;;;;;20.60;23.00;;;;;;5122808;28;19923;-50
2022/01/07 09:36:44;;;;;;;;;;;21.80;21.70;;;;;;5128070;28;19932;-52
2022/01/07 09:39:10;;;;;;;;;;;22.30;21.10;;;;;;5123063;28;19924;-49
2022/01/07 09:41:36;;;;;;;;;;;22.60;20.80;;;;;;5123070;28;19927;-53
2022/01/07 09:44:01;;;;;;;;;;;22.80;20.70;;;;;;5128477;28;19927;-51
2022/01/07 09:46:27;;;;;;;;;;;22.80;20.60;;;;;;5120676;28;19988;-51
2022/01/07 09:48:53;;;;;;;;;;;23.00;20.40;;;;;;5125945;28;19977;-56
2022/01/07 09:51:19;;;;;;;;;;;20.30;22.80;;;;;;5125334;28;20325;-47
2022/01/07 09:53:45;;;;;;;;;;;21.30;22.10;;;;;;5122571;28;19946;-51
2022/01/07 09:56:11;;;;;;;;;;;22.10;21.10;;;;;;5127966;28;19981;-47
2022/01/07 09:58:37;;;;;;;;;;;22.50;20.80;;;;;;5122822;28;19944;-48
2022/01/07 10:01:03;;;;;;;;;;;22.70;20.60;;;;;;5122541;28;19927;-48
2022/01/07 10:03:37;;;;;;;;;;;22.80;20.40;;;;;;5127484;28;19927;-54
2022/01/07 10:06:03;;;;;;;;;;;23.00;20.30;;;;;;5121221;28;19934;-51
2022/01/07 10:08:29;;;;;;;;;;;19.80;23.30;;;;;;5103943;28;20192;-49
2022/01/07 10:11:14;;;;;;;;;;;21.40;21.90;;;;;;5127688;28;20036;-49
2022/01/07 10:13:43;;;;;;;;;;;22.30;21.00;;;;;;5118674;28;19945;-49
2022/01/07 10:16:16;;;;;;;;;;;22.60;20.60;;;;;;5122098;27;19923;-51
2022/01/07 10:18:42;;;;;;;;;;;22.80;20.50;;;;;;5128186;28;19923;-48
2022/01/07 10:21:08;;;;;;;;;;;23.00;20.40;;;;;;5122542;28;19927;-51
2022/01/07 10:23:34;;;;;;;;;;;23.10;20.40;;;;;;5125463;28;19930;-51
2022/01/07 10:26:00;;;;;;;;;;;19.90;24.30;;;;;;5122302;28;19927;-48
2022/01/07 10:28:32;;;;;;;;;;;21.60;22.40;;;;;;5121755;28;19934;-50
2022/01/07 10:31:02;;;;;;;;;;;22.30;21.80;;;;;;5127649;28;20446;-50
2022/01/07 10:33:29;;;;;;;;;;;22.70;21.50;;;;;;5121807;28;19927;-49
2022/01/07 10:36:07;;;;;;;;;;;22.80;21.40;;;;;;5122150;28;20026;-51
2022/01/07 10:38:34;;;;;;;;;;;22.90;21.40;;;;;;5127322;28;19934;-51
2022/01/07 10:41:00;;;;;;;;;;;22.90;21.50;;;;;;5120140;28;20346;-55
2022/01/07 10:43:32;;;;;;;;;;;19.40;26.10;;;;;;5121664;28;19924;-50
2022/01/07 10:45:59;;;;;;;;;;;21.60;23.50;;;;;;5127270;28;20301;-49
2022/01/07 10:48:51;;;;;;;;;;;22.30;22.70;;;;;;5121666;28;20132;-47
2022/01/07 10:51:18;;;;;;;;;;;22.60;22.30;;;;;;5116730;28;19954;-47
2022/01/07 10:53:48;;;;;;;;;;;22.80;22.20;;;;;;5127614;28;19945;-48
2022/01/07 10:56:14;;;;;;;;;;;22.90;22.10;;;;;;5121934;28;19930;-51
2022/01/07 10:58:43;;;;;;;;;;;22.60;22.50;;;;;;5122695;28;19930;-55
2022/01/07 11:01:21;;;;;;;;;;;19.80;26.40;;;;;;5125002;28;19923;-47
2022/01/07 11:03:50;;;;;;;;;;;21.70;23.90;;;;;;5121474;28;19936;-51
2022/01/07 11:06:16;;;;;;;;;;;22.30;23.20;;;;;;5125637;28;19924;-56
2022/01/07 11:08:42;;;;;;;;;;;22.70;22.90;;;;;;5122364;28;19974;-47
2022/01/07 11:11:08;;;;;;;;;;;22.80;22.80;;;;;;5102443;28;19931;-48
2022/01/07 11:13:34;;;;;;;;;;;22.90;22.70;;;;;;5127095;28;19930;-56
2022/01/07 11:16:01;;;;;;;;;;;19.80;26.40;;;;;;5103265;28;19930;-53
2022/01/07 11:18:27;;;;;;;;;;;21.60;24.60;;;;;;5119339;28;19966;-54
2022/01/07 11:20:57;;;;;;;;;;;22.30;23.70;;;;;;5126656;28;19927;-54
2022/01/07 11:23:26;;;;;;;;;;;22.60;23.40;;;;;;5121053;28;19967;-56
2022/01/07 11:25:58;;;;;;;;;;;22.80;23.10;;;;;;5120761;28;20527;-56
2022/01/07 11:28:24;;;;;;;;;;;23.00;22.90;;;;;;5125624;27;20790;-58
2022/01/07 11:30:50;;;;;;;;;;;20.00;26.30;;;;;;5121482;28;20295;-54
2022/01/07 11:33:17;;;;;;;;;;;21.50;24.90;;;;;;5126864;28;19927;-55
2022/01/07 11:35:45;;;;;;;;;;;22.30;23.90;;;;;;5102739;28;20423;-56
2022/01/07 11:38:15;;;;;;;;;;;22.60;23.60;;;;;;5101052;28;20022;-56
2022/01/07 11:40:40;;;;;;;;;;;22.80;23.40;;;;;;5126483;28;19965;-53
2022/01/07 11:43:19;;;;;;;;;;;23.00;23.20;;;;;;5121228;28;19932;-56
2022/01/07 11:45:45;;;;;;;;;;;20.00;26.90;;;;;;5120733;28;19930;-53
2022/01/07 11:48:14;;;;;;;;;;;21.60;25.20;;;;;;5126549;28;20417;-58
2022/01/07 11:50:49;;;;;;;;;;;22.30;24.30;;;;;;5120986;28;19923;-58
2022/01/07 11:53:14;;;;;;;;;;;22.70;23.80;;;;;;5120979;28;20005;-58
2022/01/07 11:55:40;;;;;;;;;;;22.90;23.60;;;;;;5124264;28;19972;-55
2022/01/07 11:58:07;;;;;;;;;;;23.10;23.30;;;;;;5121367;28;20053;-53
2022/01/07 12:00:52;;;;;;;;;;;19.90;27.10;;;;;;5123038;28;19982;-58
2022/01/07 12:03:36;;;;;;;;;;;21.50;25.20;;;;;;5126235;28;20314;-59
2022/01/07 12:06:17;;;;;;;;;;;22.40;24.20;;;;;;5120589;28;20016;-57
2022/01/07 12:08:58;;;;;;;;;;;22.70;23.80;;;;;;5120504;28;19927;-55
2022/01/07 12:11:29;;;;;;;;;;;22.90;23.50;;;;;;5126175;28;20018;-50
2022/01/07 12:13:55;;;;;;;;;;;23.10;23.30;;;;;;5118556;28;20370;-47
2022/01/07 12:16:25;;;;;;;;;;;23.10;23.40;;;;;;5120370;28;20103;-47
2022/01/07 12:18:50;;;;;;;;;;;23.00;23.50;;;;;;5125812;28;20397;-47
2022/01/07 12:21:17;;;;;;;;;;;22.90;23.50;;;;;;5120161;28;20026;-46
2022/01/07 12:23:43;;;;;;;;;;;22.90;23.40;;;;;;5124443;28;19929;-54
2022/01/07 12:26:09;;;;;;;;;;;22.90;23.50;;;;;;5103905;28;20290;-47
2022/01/07 12:28:35;;;;;;;;;;;23.00;23.50;;;;;;5120460;28;19928;-47
2022/01/07 12:31:08;;;;;;;;;;;23.00;23.40;;;;;;5125680;28;20417;-49
2022/01/07 12:33:33;;;;;;;;;;;23.00;23.30;;;;;;5118092;28;20446;-46
2022/01/07 12:35:59;;;;;;;;;;;23.10;23.20;;;;;;5120054;28;19923;-46
2022/01/07 12:38:25;;;;;;;;;;;23.10;23.20;;;;;;5126720;27;19924;-46
2022/01/07 12:40:51;;;;;;;;;;;23.00;23.20;;;;;;5123735;28;19932;-45
2022/01/07 12:43:19;;;;;;;;;;;23.10;23.10;;;;;;5123870;28;19932;-46
2022/01/07 12:45:53;;;;;;;;;;;23.10;23.20;;;;;;5129599;28;20397;-48
2022/01/07 12:48:29;;;;;;;;;;;23.20;23.10;;;;;;5123303;28;21345;-45
2022/01/07 12:50:59;;;;;;;;;;;23.20;22.90;;;;;;5124103;28;19929;-57
2022/01/07 12:53:24;;;;;;;;;;;23.10;23.00;;;;;;5110637;28;19930;-51
2022/01/07 12:55:50;;;;;;;;;;;23.00;23.10;;;;;;5123608;28;20021;-53
2022/01/07 12:58:16;;;;;;;;;;;23.00;23.20;;;;;;5110497;28;19924;-51
2022/01/07 13:00:42;;;;;;;;;;;22.80;23.40;;;;;;5103553;28;20383;-50
2022/01/07 13:03:08;;;;;;;;;;;22.70;23.40;;;;;;5105357;28;20348;-49
2022/01/07 13:05:37;;;;;;;;;;;22.80;23.40;;;;;;5129166;28;20479;-50
2022/01/07 13:08:10;;;;;;;;;;;22.80;23.50;;;;;;5123442;28;19946;-50
2022/01/07 13:10:36;;;;;;;;;;;22.80;23.40;;;;;;5121222;28;19988;-49
2022/01/07 13:13:12;;;;;;;;;;;22.80;23.30;;;;;;5128766;28;19924;-50
2022/01/07 13:15:43;;;;;;;;;;;22.80;23.30;;;;;;5123061;28;19923;-49
2022/01/07 13:18:16;;;;;;;;;;;22.80;23.40;;;;;;5123008;28;19934;-48
2022/01/07 13:20:41;;;;;;;;;;;22.80;23.20;;;;;;5128409;28;19930;-49
2022/01/07 13:23:07;;;;;;;;;;;22.80;23.30;;;;;;5123192;28;20211;-49
2022/01/07 13:25:33;;;;;;;;;;;22.80;23.20;;;;;;5110421;28;19924;-52
2022/01/07 13:28:00;;;;;;;;;;;22.90;23.20;;;;;;5121021;28;19927;-48
2022/01/07 13:30:33;;;;;;;;;;;22.90;23.20;;;;;;5122907;28;19927;-49
2022/01/07 13:33:08;;;;;;;;;;;22.80;23.30;;;;;;5128343;28;19927;-51
2022/01/07 13:35:35;;;;;;;;;;;22.90;23.30;;;;;;5122929;28;19925;-50
2022/01/07 13:38:02;;;;;;;;;;;22.90;23.20;;;;;;5122784;28;19930;-51
2022/01/07 13:40:33;;;;;;;;;;;22.90;23.20;;;;;;5128647;28;20002;-48
2022/01/07 13:43:05;;;;;;;;;;;23.00;23.20;;;;;;5123047;28;19923;-49
2022/01/07 13:45:31;;;;;;;;;;;22.90;23.20;;;;;;5122372;28;20164;-51
2022/01/07 13:48:02;;;;;;;;;;;23.00;23.10;;;;;;5126732;28;19927;-52
2022/01/07 13:50:30;;;;;;;;;;;23.00;23.10;;;;;;5121964;27;20586;-51
2022/01/07 13:52:56;;;;;;;;;;;23.00;23.20;;;;;;5122679;28;19927;-52
2022/01/07 13:55:25;;;;;;;;;;;22.80;23.40;;;;;;5128131;28;19931;-48
2022/01/07 13:57:51;;;;;;;;;;;23.00;23.20;;;;;;5122661;28;19923;-47
2022/01/07 14:00:17;;;;;;;;;;;23.00;23.30;;;;;;5128510;28;19930;-47
2022/01/07 14:02:46;;;;;;;;;;;22.90;23.30;;;;;;5122753;28;19968;-49
2022/01/07 14:05:12;;;;;;;;;;;23.00;23.10;;;;;;5120510;28;19930;-48
2022/01/07 14:07:40;;;;;;;;;;;23.00;23.10;;;;;;5127912;28;19932;-48
2022/01/07 14:10:06;;;;;;;;;;;23.00;23.00;;;;;;5104133;28;20172;-50
2022/01/07 14:12:32;;;;;;;;;;;23.00;23.00;;;;;;5122350;28;20351;-48
2022/01/07 14:15:02;;;;;;;;;;;23.10;23.00;;;;;;5127414;28;19930;-48
2022/01/07 14:17:28;;;;;;;;;;;23.00;23.00;;;;;;5122543;28;19924;-48
2022/01/07 14:19:54;;;;;;;;;;;23.00;23.10;;;;;;5126078;28;20385;-53
2022/01/07 14:22:20;;;;;;;;;;;23.10;23.10;;;;;;5124459;28;19927;-47
2022/01/07 14:24:45;;;;;;;;;;;23.10;23.00;;;;;;5120178;28;19924;-50